sensor_id;sensor_type;location;lat;lon;timestamp;pressure;altitude;pressure_sealevel;temperature;humidity
56006;BME280;41888;44.696;10.522;2023-03-31T00:02:03;100680.59;;;10.71;96.94
56006;BME280;41888;44.696;10.522;2023-03-31T00:04:40;100680.88;;;10.48;99.07
56006;BME280;41888;44.696;10.522;2023-03-31T00:07:12;100671.50;;;10.52;100.00
56006;BME280;41888;44.696;10.522;2023-03-31T00:09:38;100686.22;;;10.13;100.00
56006;BME280;41888;44.696;10.522;2023-03-31T00:12:07;100683.91;;;10.04;100.00
56006;BME280;41888;44.696;10.522;2023-03-31T00:14:33;100686.13;;;10.28;100.00
56006;BME280;41888;44.696;10.522;2023-03-31T00:16:59;100688.53;;;10.23;100.00
56006;BME280;41888;44.696;10.522;2023-03-31T00:19:27;100695.09;;;10.27;100.00
56006;BME280;41888;44.696;10.522;2023-03-31T00:21:54;100691.84;;;10.25;100.00
56006;BME280;41888;44.696;10.522;2023-03-31T00:24:20;100689.13;;;10.19;100.00
56006;BME280;41888;44.696;10.522;2023-03-31T00:26:46;100689.88;;;10.12;100.00
56006;BME280;41888;44.696;10.522;2023-03-31T00:29:13;100686.22;;;9.86;100.00
56006;BME280;41888;44.696;10.522;2023-03-31T00:31:39;100681.06;;;9.78;100.00
56006;BME280;41888;44.696;10.522;2023-03-31T00:34:06;100679.53;;;9.68;100.00
56006;BME280;41888;44.696;10.522;2023-03-31T00:36:32;100662.53;;;9.63;100.00
56006;BME280;41888;44.696;10.522;2023-03-31T00:39:03;100659.97;;;9.48;100.00
56006;BME280;41888;44.696;10.522;2023-03-31T00:41:34;100653.25;;;9.52;100.00
56006;BME280;41888;44.696;10.522;2023-03-31T00:44:09;100646.63;;;9.42;100.00
56006;BME280;41888;44.696;10.522;2023-03-31T00:54:33;100641.44;;;9.55;100.00
56006;BME280;41888;44.696;10.522;2023-03-31T00:57:01;100646.41;;;9.64;100.00
56006;BME280;41888;44.696;10.522;2023-03-31T00:59:36;100639.28;;;9.65;100.00
56006;BME280;41888;44.696;10.522;2023-03-31T01:02:04;100638.22;;;9.59;100.00
56006;BME280;41888;44.696;10.522;2023-03-31T01:04:45;100636.56;;;9.58;100.00
56006;BME280;41888;44.696;10.522;2023-03-31T01:07:30;100629.13;;;9.47;100.00
56006;BME280;41888;44.696;10.522;2023-03-31T01:10:02;100635.41;;;9.18;100.00
56006;BME280;41888;44.696;10.522;2023-03-31T01:12:31;100641.09;;;9.15;100.00
56006;BME280;41888;44.696;10.522;2023-03-31T01:14:59;100631.25;;;9.09;100.00
56006;BME280;41888;44.696;10.522;2023-03-31T01:17:26;100632.78;;;8.97;100.00
56006;BME280;41888;44.696;10.522;2023-03-31T01:43:36;100585.69;;;8.84;100.00
56006;BME280;41888;44.696;10.522;2023-03-31T01:46:26;100581.13;;;8.78;100.00
56006;BME280;41888;44.696;10.522;2023-03-31T01:51:56;100582.03;;;8.64;100.00
56006;BME280;41888;44.696;10.522;2023-03-31T01:54:57;100569.66;;;8.71;100.00
56006;BME280;41888;44.696;10.522;2023-03-31T01:57:29;100557.97;;;8.44;100.00
56006;BME280;41888;44.696;10.522;2023-03-31T02:00:16;100565.47;;;8.62;100.00
56006;BME280;41888;44.696;10.522;2023-03-31T02:02:57;100565.28;;;8.64;100.00
56006;BME280;41888;44.696;10.522;2023-03-31T02:05:31;100556.81;;;8.54;100.00
56006;BME280;41888;44.696;10.522;2023-03-31T02:08:08;100553.75;;;8.21;100.00
56006;BME280;41888;44.696;10.522;2023-03-31T02:10:36;100557.72;;;8.25;100.00
56006;BME280;41888;44.696;10.522;2023-03-31T02:13:05;100554.50;;;8.29;100.00
56006;BME280;41888;44.696;10.522;2023-03-31T02:15:37;100543.06;;;8.29;100.00
56006;BME280;41888;44.696;10.522;2023-03-31T02:18:06;100545.38;;;8.53;100.00
56006;BME280;41888;44.696;10.522;2023-03-31T02:20:40;100539.66;;;8.50;100.00
56006;BME280;41888;44.696;10.522;2023-03-31T02:23:09;100534.59;;;8.76;100.00
56006;BME280;41888;44.696;10.522;2023-03-31T02:25:48;100551.94;;;8.78;100.00
56006;BME280;41888;44.696;10.522;2023-03-31T02:28:20;100558.28;;;8.77;100.00
56006;BME280;41888;44.696;10.522;2023-03-31T02:33:35;100573.13;;;8.72;100.00
56006;BME280;41888;44.696;10.522;2023-03-31T02:36:01;100574.63;;;8.60;100.00
56006;BME280;41888;44.696;10.522;2023-03-31T02:38:31;100570.56;;;8.28;100.00
56006;BME280;41888;44.696;10.522;2023-03-31T02:41:00;100567.41;;;8.18;100.00
56006;BME280;41888;44.696;10.522;2023-03-31T02:43:27;100560.13;;;7.90;100.00
56006;BME280;41888;44.696;10.522;2023-03-31T02:45:53;100562.88;;;7.82;100.00
56006;BME280;41888;44.696;10.522;2023-03-31T02:48:28;100561.22;;;7.81;100.00
56006;BME280;41888;44.696;10.522;2023-03-31T02:57:06;100566.41;;;7.89;100.00
56006;BME280;41888;44.696;10.522;2023-03-31T03:05:40;100556.81;;;7.88;100.00
56006;BME280;41888;44.696;10.522;2023-03-31T03:11:15;100549.06;;;8.01;100.00
56006;BME280;41888;44.696;10.522;2023-03-31T03:16:40;100538.94;;;7.90;100.00
56006;BME280;41888;44.696;10.522;2023-03-31T03:19:08;100528.97;;;7.78;100.00
56006;BME280;41888;44.696;10.522;2023-03-31T03:21:35;100516.66;;;7.70;100.00
56006;BME280;41888;44.696;10.522;2023-03-31T03:24:01;100510.28;;;7.64;100.00
56006;BME280;41888;44.696;10.522;2023-03-31T03:26:28;100525.72;;;7.76;100.00
56006;BME280;41888;44.696;10.522;2023-03-31T03:28:57;100517.59;;;7.77;100.00
56006;BME280;41888;44.696;10.522;2023-03-31T03:31:23;100508.06;;;7.83;100.00
56006;BME280;41888;44.696;10.522;2023-03-31T03:33:50;100504.88;;;7.73;100.00
56006;BME280;41888;44.696;10.522;2023-03-31T03:36:17;100503.50;;;7.62;100.00
56006;BME280;41888;44.696;10.522;2023-03-31T03:38:44;100498.97;;;7.71;100.00
56006;BME280;41888;44.696;10.522;2023-03-31T03:41:10;100493.84;;;7.69;100.00
56006;BME280;41888;44.696;10.522;2023-03-31T03:43:36;100494.13;;;7.59;100.00
56006;BME280;41888;44.696;10.522;2023-03-31T03:46:03;100489.53;;;7.68;100.00
56006;BME280;41888;44.696;10.522;2023-03-31T03:48:30;100484.50;;;7.73;100.00
56006;BME280;41888;44.696;10.522;2023-03-31T03:50:59;100492.28;;;7.75;100.00
56006;BME280;41888;44.696;10.522;2023-03-31T03:53:25;100499.13;;;7.69;100.00
56006;BME280;41888;44.696;10.522;2023-03-31T03:55:52;100511.38;;;7.70;100.00
56006;BME280;41888;44.696;10.522;2023-03-31T03:58:18;100501.75;;;7.84;100.00
56006;BME280;41888;44.696;10.522;2023-03-31T04:00:45;100502.03;;;7.74;100.00
56006;BME280;41888;44.696;10.522;2023-03-31T04:03:12;100496.75;;;7.74;100.00
56006;BME280;41888;44.696;10.522;2023-03-31T04:05:38;100507.19;;;7.61;100.00
56006;BME280;41888;44.696;10.522;2023-03-31T04:08:04;100514.56;;;7.66;100.00
56006;BME280;41888;44.696;10.522;2023-03-31T04:10:33;100498.59;;;7.59;100.00
56006;BME280;41888;44.696;10.522;2023-03-31T04:13:00;100487.19;;;7.58;100.00
56006;BME280;41888;44.696;10.522;2023-03-31T04:15:26;100496.03;;;7.36;100.00
56006;BME280;41888;44.696;10.522;2023-03-31T04:17:52;100511.63;;;7.46;100.00
56006;BME280;41888;44.696;10.522;2023-03-31T04:20:20;100511.56;;;7.54;100.00
56006;BME280;41888;44.696;10.522;2023-03-31T04:22:46;100507.63;;;7.64;100.00
56006;BME280;41888;44.696;10.522;2023-03-31T04:25:16;100510.28;;;7.64;100.00
56006;BME280;41888;44.696;10.522;2023-03-31T04:27:43;100520.06;;;7.49;100.00
56006;BME280;41888;44.696;10.522;2023-03-31T04:30:21;100519.56;;;7.46;100.00
56006;BME280;41888;44.696;10.522;2023-03-31T04:32:53;100514.22;;;7.39;100.00
56006;BME280;41888;44.696;10.522;2023-03-31T04:35:21;100508.97;;;7.46;100.00
56006;BME280;41888;44.696;10.522;2023-03-31T04:37:49;100500.59;;;7.28;100.00
56006;BME280;41888;44.696;10.522;2023-03-31T04:40:16;100499.88;;;7.34;100.00
56006;BME280;41888;44.696;10.522;2023-03-31T04:42:43;100504.25;;;7.27;100.00
56006;BME280;41888;44.696;10.522;2023-03-31T04:45:11;100500.94;;;7.25;100.00
56006;BME280;41888;44.696;10.522;2023-03-31T04:47:37;100509.81;;;7.32;100.00
56006;BME280;41888;44.696;10.522;2023-03-31T04:50:04;100495.13;;;7.44;100.00
56006;BME280;41888;44.696;10.522;2023-03-31T04:52:30;100484.44;;;7.37;100.00
56006;BME280;41888;44.696;10.522;2023-03-31T04:54:56;100485.63;;;7.49;100.00
56006;BME280;41888;44.696;10.522;2023-03-31T04:57:22;100480.06;;;7.44;100.00
56006;BME280;41888;44.696;10.522;2023-03-31T04:59:49;100473.97;;;7.29;100.00
56006;BME280;41888;44.696;10.522;2023-03-31T05:02:15;100478.44;;;7.29;100.00
56006;BME280;41888;44.696;10.522;2023-03-31T05:04:48;100478.22;;;7.30;100.00
56006;BME280;41888;44.696;10.522;2023-03-31T05:07:16;100472.69;;;7.40;100.00
56006;BME280;41888;44.696;10.522;2023-03-31T05:09:43;100472.59;;;7.33;100.00
56006;BME280;41888;44.696;10.522;2023-03-31T05:12:09;100473.97;;;7.44;100.00
56006;BME280;41888;44.696;10.522;2023-03-31T05:14:36;100475.75;;;7.58;100.00
56006;BME280;41888;44.696;10.522;2023-03-31T05:17:02;100472.38;;;7.64;100.00
56006;BME280;41888;44.696;10.522;2023-03-31T05:19:28;100462.50;;;7.73;100.00
56006;BME280;41888;44.696;10.522;2023-03-31T05:21:54;100464.53;;;7.71;100.00
56006;BME280;41888;44.696;10.522;2023-03-31T05:24:20;100471.66;;;7.70;100.00
56006;BME280;41888;44.696;10.522;2023-03-31T05:26:47;100468.88;;;7.78;100.00
56006;BME280;41888;44.696;10.522;2023-03-31T05:29:18;100483.88;;;7.86;100.00
56006;BME280;41888;44.696;10.522;2023-03-31T05:31:44;100467.31;;;7.84;100.00
56006;BME280;41888;44.696;10.522;2023-03-31T05:34:10;100453.50;;;7.88;100.00
56006;BME280;41888;44.696;10.522;2023-03-31T05:36:37;100454.38;;;7.74;100.00
56006;BME280;41888;44.696;10.522;2023-03-31T05:39:06;100442.22;;;7.80;100.00
56006;BME280;41888;44.696;10.522;2023-03-31T05:41:33;100442.41;;;7.78;100.00
56006;BME280;41888;44.696;10.522;2023-03-31T05:44:00;100450.81;;;7.82;100.00
56006;BME280;41888;44.696;10.522;2023-03-31T05:46:27;100450.34;;;7.93;100.00
56006;BME280;41888;44.696;10.522;2023-03-31T05:48:53;100454.03;;;7.98;100.00
56006;BME280;41888;44.696;10.522;2023-03-31T05:51:20;100452.28;;;8.05;100.00
56006;BME280;41888;44.696;10.522;2023-03-31T05:53:46;100462.78;;;8.14;100.00
56006;BME280;41888;44.696;10.522;2023-03-31T05:56:12;100455.97;;;8.26;100.00
56006;BME280;41888;44.696;10.522;2023-03-31T05:58:38;100453.84;;;8.36;100.00
56006;BME280;41888;44.696;10.522;2023-03-31T06:01:09;100461.03;;;8.42;100.00
56006;BME280;41888;44.696;10.522;2023-03-31T06:03:38;100459.63;;;8.46;100.00
56006;BME280;41888;44.696;10.522;2023-03-31T06:06:07;100458.53;;;8.55;100.00
56006;BME280;41888;44.696;10.522;2023-03-31T06:08:36;100453.97;;;8.49;100.00
56006;BME280;41888;44.696;10.522;2023-03-31T06:11:07;100456.69;;;8.56;100.00
56006;BME280;41888;44.696;10.522;2023-03-31T06:13:34;100440.28;;;8.67;100.00
56006;BME280;41888;44.696;10.522;2023-03-31T06:16:01;100450.09;;;9.01;100.00
56006;BME280;41888;44.696;10.522;2023-03-31T06:18:29;100449.81;;;9.58;100.00
56006;BME280;41888;44.696;10.522;2023-03-31T06:20:56;100445.88;;;9.47;100.00
56006;BME280;41888;44.696;10.522;2023-03-31T06:23:23;100445.19;;;9.32;100.00
56006;BME280;41888;44.696;10.522;2023-03-31T06:25:50;100429.81;;;9.62;100.00
56006;BME280;41888;44.696;10.522;2023-03-31T06:28:17;100435.88;;;9.49;100.00
56006;BME280;41888;44.696;10.522;2023-03-31T06:30:44;100421.13;;;10.01;100.00
56006;BME280;41888;44.696;10.522;2023-03-31T06:33:10;100419.66;;;9.85;100.00
56006;BME280;41888;44.696;10.522;2023-03-31T06:35:40;100420.91;;;9.83;100.00
56006;BME280;41888;44.696;10.522;2023-03-31T06:38:07;100417.31;;;10.23;100.00
56006;BME280;41888;44.696;10.522;2023-03-31T06:40:33;100408.94;;;10.52;100.00
56006;BME280;41888;44.696;10.522;2023-03-31T06:42:59;100403.03;;;10.57;100.00
56006;BME280;41888;44.696;10.522;2023-03-31T06:45:26;100394.78;;;11.05;100.00
56006;BME280;41888;44.696;10.522;2023-03-31T06:47:52;100385.47;;;12.65;100.00
56006;BME280;41888;44.696;10.522;2023-03-31T06:50:18;100386.06;;;12.43;100.00
56006;BME280;41888;44.696;10.522;2023-03-31T06:52:44;100385.13;;;12.80;99.72
56006;BME280;41888;44.696;10.522;2023-03-31T06:55:10;100392.03;;;13.13;97.76
56006;BME280;41888;44.696;10.522;2023-03-31T06:57:38;100384.31;;;13.41;94.92
56006;BME280;41888;44.696;10.522;2023-03-31T07:00:05;100372.00;;;13.22;93.98
56006;BME280;41888;44.696;10.522;2023-03-31T07:02:32;100372.72;;;13.10;95.25
56006;BME280;41888;44.696;10.522;2023-03-31T07:04:58;100371.19;;;15.10;83.65
56006;BME280;41888;44.696;10.522;2023-03-31T07:07:24;100369.44;;;15.16;78.91
56006;BME280;41888;44.696;10.522;2023-03-31T07:09:51;100367.47;;;14.65;83.63
56006;BME280;41888;44.696;10.522;2023-03-31T07:12:18;100354.84;;;15.23;78.31
56006;BME280;41888;44.696;10.522;2023-03-31T07:14:45;100342.47;;;13.94;86.31
56006;BME280;41888;44.696;10.522;2023-03-31T07:17:11;100342.66;;;14.81;83.90
56006;BME280;41888;44.696;10.522;2023-03-31T07:19:37;100332.22;;;14.56;83.73
56006;BME280;41888;44.696;10.522;2023-03-31T07:22:07;100320.53;;;14.27;86.30
56006;BME280;41888;44.696;10.522;2023-03-31T07:24:34;100317.41;;;14.65;84.72
56006;BME280;41888;44.696;10.522;2023-03-31T07:27:00;100320.50;;;15.09;82.16
56006;BME280;41888;44.696;10.522;2023-03-31T07:29:26;100327.09;;;15.70;78.60
56006;BME280;41888;44.696;10.522;2023-03-31T07:31:52;100327.91;;;15.70;77.83
56006;BME280;41888;44.696;10.522;2023-03-31T07:34:18;100327.69;;;15.60;78.02
56006;BME280;41888;44.696;10.522;2023-03-31T07:36:45;100334.56;;;15.28;77.12
56006;BME280;41888;44.696;10.522;2023-03-31T07:39:11;100341.28;;;14.78;77.72
56006;BME280;41888;44.696;10.522;2023-03-31T07:41:37;100342.09;;;14.67;78.20
56006;BME280;41888;44.696;10.522;2023-03-31T07:44:03;100325.22;;;14.78;79.79
56006;BME280;41888;44.696;10.522;2023-03-31T07:46:30;100323.91;;;15.04;78.12
56006;BME280;41888;44.696;10.522;2023-03-31T07:48:56;100311.44;;;14.87;79.97
56006;BME280;41888;44.696;10.522;2023-03-31T07:51:25;100313.91;;;14.88;77.13
56006;BME280;41888;44.696;10.522;2023-03-31T07:53:52;100303.91;;;14.72;79.15
56006;BME280;41888;44.696;10.522;2023-03-31T07:56:20;100324.13;;;15.03;78.00
56006;BME280;41888;44.696;10.522;2023-03-31T07:58:47;100330.88;;;15.17;78.28
56006;BME280;41888;44.696;10.522;2023-03-31T08:01:18;100339.94;;;15.16;76.90
56006;BME280;41888;44.696;10.522;2023-03-31T08:03:46;100340.09;;;14.98;81.37
56006;BME280;41888;44.696;10.522;2023-03-31T08:06:23;100345.22;;;15.11;80.55
56006;BME280;41888;44.696;10.522;2023-03-31T08:08:50;100348.13;;;14.98;81.06
56006;BME280;41888;44.696;10.522;2023-03-31T08:11:17;100343.09;;;15.13;81.14
56006;BME280;41888;44.696;10.522;2023-03-31T08:13:44;100338.47;;;14.97;82.08
56006;BME280;41888;44.696;10.522;2023-03-31T08:16:10;100352.94;;;14.96;83.04
56006;BME280;41888;44.696;10.522;2023-03-31T08:18:36;100344.66;;;14.86;82.98
56006;BME280;41888;44.696;10.522;2023-03-31T08:21:03;100337.69;;;14.61;84.77
56006;BME280;41888;44.696;10.522;2023-03-31T08:23:29;100334.66;;;14.69;85.08
56006;BME280;41888;44.696;10.522;2023-03-31T08:26:06;100334.28;;;15.01;86.76
56006;BME280;41888;44.696;10.522;2023-03-31T08:28:33;100328.81;;;14.96;83.35
56006;BME280;41888;44.696;10.522;2023-03-31T08:31:06;100313.25;;;14.69;84.32
56006;BME280;41888;44.696;10.522;2023-03-31T08:33:32;100303.31;;;14.35;86.07
56006;BME280;41888;44.696;10.522;2023-03-31T08:36:06;100293.88;;;14.09;87.66
56006;BME280;41888;44.696;10.522;2023-03-31T08:38:34;100302.72;;;14.10;89.96
56006;BME280;41888;44.696;10.522;2023-03-31T08:41:05;100300.19;;;14.50;88.79
56006;BME280;41888;44.696;10.522;2023-03-31T08:43:36;100294.13;;;14.31;84.91
56006;BME280;41888;44.696;10.522;2023-03-31T08:46:07;100301.50;;;14.47;83.07
56006;BME280;41888;44.696;10.522;2023-03-31T08:49:04;100298.22;;;14.57;81.78
56006;BME280;41888;44.696;10.522;2023-03-31T08:51:43;100307.53;;;14.54;80.77
56006;BME280;41888;44.696;10.522;2023-03-31T08:54:16;100312.00;;;15.12;80.69
56006;BME280;41888;44.696;10.522;2023-03-31T08:56:47;100310.00;;;15.47;79.26
56006;BME280;41888;44.696;10.522;2023-03-31T09:01:49;100315.91;;;16.06;74.01
56006;BME280;41888;44.696;10.522;2023-03-31T09:15:31;100304.06;;;15.45;79.14
56006;BME280;41888;44.696;10.522;2023-03-31T09:18:06;100299.06;;;15.94;76.98
56006;BME280;41888;44.696;10.522;2023-03-31T09:20:39;100288.06;;;15.62;79.00
56006;BME280;41888;44.696;10.522;2023-03-31T09:23:30;100286.97;;;15.91;77.81
56006;BME280;41888;44.696;10.522;2023-03-31T09:25:59;100288.97;;;15.68;79.83
56006;BME280;41888;44.696;10.522;2023-03-31T09:28:36;100287.47;;;15.60;78.83
56006;BME280;41888;44.696;10.522;2023-03-31T09:31:22;100283.88;;;15.99;79.15
56006;BME280;41888;44.696;10.522;2023-03-31T09:33:52;100270.84;;;16.08;76.54
56006;BME280;41888;44.696;10.522;2023-03-31T09:36:20;100261.81;;;16.14;76.18
56006;BME280;41888;44.696;10.522;2023-03-31T09:38:49;100269.50;;;16.61;76.09
56006;BME280;41888;44.696;10.522;2023-03-31T09:41:16;100275.97;;;16.81;74.54
56006;BME280;41888;44.696;10.522;2023-03-31T09:43:44;100279.31;;;16.33;75.47
56006;BME280;41888;44.696;10.522;2023-03-31T09:46:29;100263.28;;;16.77;73.97
56006;BME280;41888;44.696;10.522;2023-03-31T09:49:11;100253.22;;;16.89;74.51
56006;BME280;41888;44.696;10.522;2023-03-31T09:51:47;100254.03;;;17.11;71.79
56006;BME280;41888;44.696;10.522;2023-03-31T09:54:38;100245.53;;;16.98;73.54
56006;BME280;41888;44.696;10.522;2023-03-31T09:57:24;100227.75;;;17.18;74.80
56006;BME280;41888;44.696;10.522;2023-03-31T09:59:51;100222.50;;;17.02;73.59
56006;BME280;41888;44.696;10.522;2023-03-31T10:02:34;100201.09;;;17.39;69.07
56006;BME280;41888;44.696;10.522;2023-03-31T10:05:02;100202.41;;;16.87;74.80
56006;BME280;41888;44.696;10.522;2023-03-31T10:07:29;100181.75;;;16.06;76.81
56006;BME280;41888;44.696;10.522;2023-03-31T10:09:56;100166.09;;;16.41;75.87
56006;BME280;41888;44.696;10.522;2023-03-31T10:12:26;100170.28;;;16.98;73.81
56006;BME280;41888;44.696;10.522;2023-03-31T10:15:00;100155.09;;;16.60;75.92
56006;BME280;41888;44.696;10.522;2023-03-31T10:17:27;100147.50;;;16.35;72.94
56006;BME280;41888;44.696;10.522;2023-03-31T10:19:56;100132.84;;;16.64;71.03
56006;BME280;41888;44.696;10.522;2023-03-31T10:22:27;100130.09;;;17.08;69.47
56006;BME280;41888;44.696;10.522;2023-03-31T10:24:54;100133.84;;;18.07;65.08
56006;BME280;41888;44.696;10.522;2023-03-31T10:27:32;100130.81;;;17.30;61.60
56006;BME280;41888;44.696;10.522;2023-03-31T10:30:00;100136.03;;;18.15;60.71
56006;BME280;41888;44.696;10.522;2023-03-31T10:32:30;100145.34;;;18.45;62.04
56006;BME280;41888;44.696;10.522;2023-03-31T10:35:03;100133.28;;;18.58;62.95
56006;BME280;41888;44.696;10.522;2023-03-31T10:37:31;100121.22;;;18.80;62.22
56006;BME280;41888;44.696;10.522;2023-03-31T10:40:03;100124.66;;;18.08;62.00
56006;BME280;41888;44.696;10.522;2023-03-31T10:42:34;100119.69;;;17.85;62.04
56006;BME280;41888;44.696;10.522;2023-03-31T10:45:37;100108.97;;;18.47;63.15
56006;BME280;41888;44.696;10.522;2023-03-31T10:48:26;100097.81;;;18.19;64.73
56006;BME280;41888;44.696;10.522;2023-03-31T10:50:57;100090.59;;;18.29;65.04
56006;BME280;41888;44.696;10.522;2023-03-31T10:53:24;100086.66;;;18.00;65.01
56006;BME280;41888;44.696;10.522;2023-03-31T11:01:42;100052.38;;;18.47;63.88
56006;BME280;41888;44.696;10.522;2023-03-31T11:07:07;100051.19;;;18.08;66.21
56006;BME280;41888;44.696;10.522;2023-03-31T11:12:51;100029.31;;;17.99;64.74
56006;BME280;41888;44.696;10.522;2023-03-31T11:15:35;100031.47;;;18.90;62.43
56006;BME280;41888;44.696;10.522;2023-03-31T11:20:50;100035.78;;;18.96;61.07
56006;BME280;41888;44.696;10.522;2023-03-31T11:24:00;100039.28;;;18.71;61.29
56006;BME280;41888;44.696;10.522;2023-03-31T11:32:09;100042.78;;;17.15;67.91
56006;BME280;41888;44.696;10.522;2023-03-31T11:34:47;100030.44;;;16.87;69.53
56006;BME280;41888;44.696;10.522;2023-03-31T11:40:06;100030.69;;;17.55;67.84
56006;BME280;41888;44.696;10.522;2023-03-31T11:42:50;100018.81;;;17.51;67.99
56006;BME280;41888;44.696;10.522;2023-03-31T11:45:34;100008.69;;;17.63;67.73
56006;BME280;41888;44.696;10.522;2023-03-31T11:48:09;99996.31;;;17.62;68.40
56006;BME280;41888;44.696;10.522;2023-03-31T11:50:41;99983.34;;;17.54;68.74
56006;BME280;41888;44.696;10.522;2023-03-31T11:53:17;99982.03;;;17.19;70.06
56006;BME280;41888;44.696;10.522;2023-03-31T11:55:49;99963.75;;;17.16;70.53
56006;BME280;41888;44.696;10.522;2023-03-31T12:03:22;99932.13;;;17.28;70.29
56006;BME280;41888;44.696;10.522;2023-03-31T12:06:03;99923.31;;;17.43;69.26
56006;BME280;41888;44.696;10.522;2023-03-31T12:16:46;99913.47;;;17.12;69.75
56006;BME280;41888;44.696;10.522;2023-03-31T12:19:53;99917.59;;;17.29;69.77
56006;BME280;41888;44.696;10.522;2023-03-31T12:22:31;99900.72;;;17.39;68.76
56006;BME280;41888;44.696;10.522;2023-03-31T12:25:03;99892.91;;;17.38;68.97
56006;BME280;41888;44.696;10.522;2023-03-31T12:32:52;99869.09;;;17.66;69.64
56006;BME280;41888;44.696;10.522;2023-03-31T12:52:04;99846.84;;;18.67;64.14
56006;BME280;41888;44.696;10.522;2023-03-31T12:57:36;99828.56;;;18.29;64.31
56006;BME280;41888;44.696;10.522;2023-03-31T13:00:13;99834.47;;;18.15;66.04
56006;BME280;41888;44.696;10.522;2023-03-31T13:02:42;99818.84;;;18.33;65.31
56006;BME280;41888;44.696;10.522;2023-03-31T13:08:04;99800.53;;;18.09;66.68
56006;BME280;41888;44.696;10.522;2023-03-31T13:10:31;99795.38;;;18.74;65.43
56006;BME280;41888;44.696;10.522;2023-03-31T13:13:04;99788.38;;;19.42;61.79
56006;BME280;41888;44.696;10.522;2023-03-31T13:15:31;99784.06;;;19.36;60.71
56006;BME280;41888;44.696;10.522;2023-03-31T13:18:03;99768.97;;;19.84;59.17
56006;BME280;41888;44.696;10.522;2023-03-31T13:20:35;99761.41;;;19.37;61.04
56006;BME280;41888;44.696;10.522;2023-03-31T13:23:05;99763.66;;;19.20;62.80
56006;BME280;41888;44.696;10.522;2023-03-31T13:25:36;99746.31;;;18.82;65.02
56006;BME280;41888;44.696;10.522;2023-03-31T13:28:12;99753.66;;;18.41;66.12
56006;BME280;41888;44.696;10.522;2023-03-31T13:35:43;99773.03;;;18.68;66.36
56006;BME280;41888;44.696;10.522;2023-03-31T13:41:02;99765.69;;;18.84;66.32
56006;BME280;41888;44.696;10.522;2023-03-31T13:46:30;99736.69;;;18.55;66.82
56006;BME280;41888;44.696;10.522;2023-03-31T13:51:52;99722.22;;;18.01;69.33
56006;BME280;41888;44.696;10.522;2023-03-31T14:05:24;99704.97;;;17.61;72.89
56006;BME280;41888;44.696;10.522;2023-03-31T14:07:58;99700.69;;;17.60;74.04
56006;BME280;41888;44.696;10.522;2023-03-31T14:10:36;99686.66;;;17.43;76.61
56006;BME280;41888;44.696;10.522;2023-03-31T14:13:17;99680.22;;;17.44;77.76
56006;BME280;41888;44.696;10.522;2023-03-31T14:15:58;99666.47;;;17.51;76.11
56006;BME280;41888;44.696;10.522;2023-03-31T14:18:31;99647.13;;;17.59;76.65
56006;BME280;41888;44.696;10.522;2023-03-31T14:21:23;99651.72;;;17.63;74.99
56006;BME280;41888;44.696;10.522;2023-03-31T14:29:23;99626.41;;;17.90;74.04
56006;BME280;41888;44.696;10.522;2023-03-31T14:34:45;99616.16;;;18.07;73.20
56006;BME280;41888;44.696;10.522;2023-03-31T14:37:14;99610.50;;;17.98;72.08
56006;BME280;41888;44.696;10.522;2023-03-31T14:39:52;99602.44;;;17.98;73.68
56006;BME280;41888;44.696;10.522;2023-03-31T14:42:27;99594.38;;;17.93;71.76
56006;BME280;41888;44.696;10.522;2023-03-31T14:44:56;99593.31;;;17.89;73.03
56006;BME280;41888;44.696;10.522;2023-03-31T14:47:27;99582.81;;;17.83;73.71
56006;BME280;41888;44.696;10.522;2023-03-31T14:50:01;99573.44;;;17.70;74.51
56006;BME280;41888;44.696;10.522;2023-03-31T14:52:32;99572.09;;;17.67;75.46
56006;BME280;41888;44.696;10.522;2023-03-31T14:55:00;99556.22;;;17.56;77.06
56006;BME280;41888;44.696;10.522;2023-03-31T14:57:37;99544.66;;;17.40;76.40
56006;BME280;41888;44.696;10.522;2023-03-31T15:00:07;99553.53;;;17.41;78.58
56006;BME280;41888;44.696;10.522;2023-03-31T15:02:36;99555.41;;;17.40;78.70
56006;BME280;41888;44.696;10.522;2023-03-31T15:05:18;99548.13;;;17.81;76.71
56006;BME280;41888;44.696;10.522;2023-03-31T15:07:47;99557.00;;;17.92;74.74
56006;BME280;41888;44.696;10.522;2023-03-31T15:10:19;99558.81;;;18.06;74.51
56006;BME280;41888;44.696;10.522;2023-03-31T15:12:47;99555.38;;;17.86;74.13
56006;BME280;41888;44.696;10.522;2023-03-31T15:15:14;99551.25;;;18.13;74.13
56006;BME280;41888;44.696;10.522;2023-03-31T15:17:43;99544.75;;;18.20;73.41
56006;BME280;41888;44.696;10.522;2023-03-31T15:22:49;99543.22;;;17.98;72.84
56006;BME280;41888;44.696;10.522;2023-03-31T15:25:16;99549.09;;;18.10;71.16
56006;BME280;41888;44.696;10.522;2023-03-31T15:27:50;99539.19;;;18.01;72.22
56006;BME280;41888;44.696;10.522;2023-03-31T15:30:22;99549.16;;;17.95;74.10
56006;BME280;41888;44.696;10.522;2023-03-31T15:32:49;99544.34;;;17.92;75.28
56006;BME280;41888;44.696;10.522;2023-03-31T15:35:35;99533.59;;;17.82;75.89
56006;BME280;41888;44.696;10.522;2023-03-31T15:38:04;99539.94;;;18.11;75.37
56006;BME280;41888;44.696;10.522;2023-03-31T15:40:37;99537.69;;;18.39;72.52
56006;BME280;41888;44.696;10.522;2023-03-31T15:43:15;99520.00;;;18.18;73.99
56006;BME280;41888;44.696;10.522;2023-03-31T15:45:53;99528.09;;;18.18;71.28
56006;BME280;41888;44.696;10.522;2023-03-31T15:53:46;99517.25;;;18.33;70.64